Time;durP1;ratioP1;P1;durP2;ratioP2;P2;SDS_P1;SDS_P2;PMS_P1;PMS_P2;Temp;Humidity;BMP_temperature;BMP_pressure;BME280_temperature;BME280_humidity;BME280_pressure;Samples;Min_cycle;Max_cycle;Signal;HPM_P1;HPM_P2
2023/02/27 00:02:11;;;;;;;19.92;14.15;;;;;;;-1.86;93.42;94652.19;5050453;28;20116;-64
2023/02/27 00:04:37;;;;;;;14.98;11.65;;;;;;;-1.47;89.60;94653.25;5055625;28;20036;-68
2023/02/27 00:07:02;;;;;;;15.88;12.30;;;;;;;-1.45;88.67;94655.72;5053956;28;20024;-69
2023/02/27 00:09:28;;;;;;;25.60;15.10;;;;;;;-1.69;89.80;94668.38;5053724;28;20025;-69
2023/02/27 00:11:53;;;;;;;19.73;15.90;;;;;;;-1.68;89.73;94662.28;5048517;28;20111;-69
2023/02/27 00:14:19;;;;;;;15.15;12.07;;;;;;;-1.51;89.05;94676.78;5050801;28;20024;-69
2023/02/27 00:16:44;;;;;;;9.73;8.70;;;;;;;-1.60;86.93;94668.66;5053762;28;20025;-69
2023/02/27 00:19:10;;;;;;;10.95;9.60;;;;;;;-1.73;88.18;94678.88;5053982;28;20020;-70
2023/02/27 00:21:35;;;;;;;14.20;9.52;;;;;;;-1.83;89.72;94675.22;5051886;28;20029;-60
2023/02/27 00:24:01;;;;;;;17.30;10.43;;;;;;;-1.87;90.11;94673.75;5053927;28;20108;-60
2023/02/27 00:26:26;;;;;;;18.30;11.05;;;;;;;-1.90;91.26;94671.31;5051260;28;20021;-59
2023/02/27 00:28:52;;;;;;;13.13;10.10;;;;;;;-1.93;91.97;94677.50;5048355;28;20021;-59
2023/02/27 00:31:17;;;;;;;12.82;9.30;;;;;;;-1.95;91.73;94689.66;5055721;28;20041;-60
2023/02/27 00:33:43;;;;;;;10.05;9.05;;;;;;;-1.95;91.71;94693.97;5049935;28;20013;-59
2023/02/27 00:36:08;;;;;;;11.65;9.90;;;;;;;-1.87;90.42;94702.94;5053551;28;20056;-60
2023/02/27 00:38:34;;;;;;;12.75;9.52;;;;;;;-1.63;88.98;94706.75;5037362;28;20052;-59
2023/02/27 00:40:59;;;;;;;12.70;11.35;;;;;;;-1.44;87.55;94703.88;5048504;28;20033;-63
2023/02/27 00:43:25;;;;;;;46.75;23.40;;;;;;;-1.40;87.26;94701.94;5051200;28;20219;-60
2023/02/27 00:45:50;;;;;;;69.68;26.00;;;;;;;-1.67;88.68;94712.97;5052807;28;20406;-60
2023/02/27 00:48:16;;;;;;;41.67;19.63;;;;;;;-1.83;90.68;94711.34;5049711;28;20032;-60
2023/02/27 00:50:42;;;;;;;19.77;13.18;;;;;;;-1.91;92.10;94722.09;5034408;28;20017;-60
2023/02/27 00:53:07;;;;;;;13.75;10.55;;;;;;;-1.97;93.21;94716.47;5052564;28;20048;-60
2023/02/27 00:55:32;;;;;;;13.48;11.45;;;;;;;-1.98;93.81;94725.13;5050070;28;20069;-59
2023/02/27 00:57:58;;;;;;;11.82;9.68;;;;;;;-1.91;93.22;94726.41;5053086;28;20113;-60
2023/02/27 01:00:24;;;;;;;10.13;9.13;;;;;;;-1.92;94.23;94724.75;5050626;28;20044;-60
2023/02/27 01:02:49;;;;;;;11.60;10.40;;;;;;;-1.93;93.91;94725.69;5045404;28;20028;-62
2023/02/27 01:05:14;;;;;;;10.35;9.18;;;;;;;-1.90;93.43;94722.91;5048593;28;20107;-62
2023/02/27 01:07:40;;;;;;;11.32;9.10;;;;;;;-1.93;93.20;94726.53;5050174;28;20109;-62
2023/02/27 01:10:06;;;;;;;9.60;8.70;;;;;;;-1.83;93.06;94733.72;5053920;28;20016;-62
2023/02/27 01:12:32;;;;;;;9.10;8.18;;;;;;;-1.81;91.43;94730.13;5057835;28;20051;-62
2023/02/27 01:14:57;;;;;;;9.73;7.60;;;;;;;-1.83;91.19;94736.28;5055748;28;20375;-61
2023/02/27 01:17:23;;;;;;;8.60;7.68;;;;;;;-1.65;89.46;94748.13;5047644;28;20064;-62
2023/02/27 01:19:48;;;;;;;9.10;8.20;;;;;;;-1.62;88.46;94742.78;5050680;28;20037;-59
2023/02/27 01:22:14;;;;;;;9.55;8.63;;;;;;;-1.76;89.97;94738.44;5055490;28;20016;-62
2023/02/27 01:24:39;;;;;;;10.20;8.88;;;;;;;-1.82;90.98;94732.78;5052324;28;20031;-63
2023/02/27 01:27:04;;;;;;;10.10;8.77;;;;;;;-1.87;92.07;94744.22;5050812;28;20513;-62
2023/02/27 01:29:30;;;;;;;8.25;7.50;;;;;;;-1.88;90.93;94749.47;5048864;28;20120;-62
2023/02/27 01:31:55;;;;;;;7.53;6.82;;;;;;;-1.71;89.50;94747.66;5037036;28;20024;-63
2023/02/27 01:34:20;;;;;;;11.43;9.95;;;;;;;-1.60;88.94;94750.44;5053035;28;20021;-63
2023/02/27 01:36:46;;;;;;;17.13;11.63;;;;;;;-1.65;88.90;94739.56;5054510;28;20476;-63
2023/02/27 01:39:11;;;;;;;22.60;13.23;;;;;;;-1.70;88.73;94749.31;5056737;28;20036;-60
2023/02/27 01:41:36;;;;;;;20.77;12.95;;;;;;;-1.78;91.83;94742.84;5053208;28;20067;-63
2023/02/27 01:44:08;;;;;;;16.25;11.55;;;;;;;-1.84;92.35;94747.53;5055835;28;20505;-63
2023/02/27 01:46:34;;;;;;;11.70;8.80;;;;;;;-1.90;91.39;94753.88;5051543;28;20079;-63
2023/02/27 01:49:15;;;;;;;12.15;10.25;;;;;;;-1.93;90.69;94751.47;5052333;28;20499;-63
2023/02/27 01:51:53;;;;;;;17.65;12.98;;;;;;;-1.95;91.63;94755.91;5056875;28;20107;-63
2023/02/27 01:54:24;;;;;;;17.33;12.63;;;;;;;-1.81;90.79;94758.53;5052996;28;20032;-62
2023/02/27 01:56:50;;;;;;;18.80;12.95;;;;;;;-1.88;91.51;94752.88;5051209;28;20049;-68
2023/02/27 01:59:17;;;;;;;17.55;12.77;;;;;;;-1.92;93.12;94759.16;5057971;28;20040;-63
2023/02/27 02:01:43;;;;;;;20.90;12.23;;;;;;;-1.92;93.88;94766.03;5056030;28;20119;-64
2023/02/27 02:04:23;;;;;;;21.55;12.02;;;;;;;-1.92;92.83;94766.03;5055259;28;20115;-64
2023/02/27 02:06:52;;;;;;;19.25;12.38;;;;;;;-1.91;92.99;94765.97;5055251;28;20402;-64
2023/02/27 02:09:21;;;;;;;11.82;8.68;;;;;;;-1.92;92.43;94758.31;5056729;28;20081;-64
2023/02/27 02:11:47;;;;;;;9.02;7.63;;;;;;;-1.93;92.88;94774.69;5057800;28;20037;-64
2023/02/27 02:14:12;;;;;;;10.57;8.75;;;;;;;-1.90;92.87;94769.34;5054017;28;20056;-64
2023/02/27 02:17:09;;;;;;;10.32;9.10;;;;;;;-1.86;92.28;94760.53;5055048;28;20044;-62
2023/02/27 02:20:12;;;;;;;16.27;11.98;;;;;;;-1.76;91.58;94777.13;5054542;28;20036;-60
2023/02/27 02:22:56;;;;;;;17.52;12.65;;;;;;;-1.87;91.33;94771.78;5052429;28;20021;-60
2023/02/27 02:25:30;;;;;;;11.15;9.88;;;;;;;-1.82;91.18;94772.34;5050412;28;20051;-61
2023/02/27 02:28:45;;;;;;;9.93;8.82;;;;;;;-1.77;89.40;94778.06;5055327;28;20021;-60
2023/02/27 02:31:29;;;;;;;10.40;9.35;;;;;;;-1.81;91.05;94770.56;5055800;28;20020;-60
2023/02/27 02:34:06;;;;;;;10.48;9.45;;;;;;;-1.88;91.58;94773.53;5049949;28;20024;-60
2023/02/27 02:36:55;;;;;;;11.13;9.43;;;;;;;-1.72;89.50;94777.81;5050174;28;20046;-69
2023/02/27 02:39:41;;;;;;;11.68;9.50;;;;;;;-1.91;91.50;94772.88;5054370;28;20177;-64
2023/02/27 02:42:31;;;;;;;12.57;9.75;;;;;;;-1.98;93.21;94772.41;5038121;28;20036;-64
2023/02/27 02:45:19;;;;;;;11.82;9.55;;;;;;;-1.98;92.06;94777.56;5054121;28;20029;-64
2023/02/27 02:48:12;;;;;;;15.55;11.73;;;;;;;-2.02;92.38;94776.91;5053315;28;20025;-65
2023/02/27 02:50:47;;;;;;;16.65;12.27;;;;;;;-2.01;93.19;94777.72;5054854;28;20055;-64
2023/02/27 02:53:37;;;;;;;15.50;11.57;;;;;;;-1.74;91.62;94779.66;5053653;28;20028;-64
2023/02/27 02:56:31;;;;;;;13.32;11.00;;;;;;;-1.91;91.82;94788.34;5052072;28;20041;-62
2023/02/27 02:59:03;;;;;;;14.40;11.57;;;;;;;-1.95;93.07;94786.84;5046821;28;20025;-60
2023/02/27 03:01:43;;;;;;;13.73;10.90;;;;;;;-1.96;92.36;94791.22;5049689;28;20029;-60
2023/02/27 03:04:19;;;;;;;10.68;9.65;;;;;;;-2.00;92.90;94786.31;5054258;28;20017;-59
2023/02/27 03:06:57;;;;;;;11.50;10.30;;;;;;;-1.80;91.84;94793.72;5047424;28;20036;-59
2023/02/27 03:09:34;;;;;;;18.63;13.88;;;;;;;-1.92;93.11;94799.59;5049136;28;20056;-60
2023/02/27 03:12:04;;;;;;;18.77;14.07;;;;;;;-1.75;92.48;94809.78;5053151;28;20524;-60
2023/02/27 03:14:35;;;;;;;17.63;13.85;;;;;;;-1.88;92.07;94798.47;5050408;28;20021;-64
2023/02/27 03:17:09;;;;;;;18.67;12.43;;;;;;;-2.02;92.67;94807.84;5052409;28;20017;-59
2023/02/27 03:19:51;;;;;;;15.07;11.85;;;;;;;-1.93;92.75;94808.25;5053197;28;20243;-62
2023/02/27 03:22:22;;;;;;;12.60;10.52;;;;;;;-2.03;92.60;94803.63;5047224;28;20040;-62
2023/02/27 03:24:54;;;;;;;16.92;11.35;;;;;;;-2.20;94.15;94812.31;5052703;28;20028;-62
2023/02/27 03:27:21;;;;;;;17.75;13.18;;;;;;;-2.28;95.03;94818.81;5053090;28;20029;-62
2023/02/27 03:29:58;;;;;;;20.13;14.48;;;;;;;-2.32;96.49;94820.72;5047761;28;20078;-62
2023/02/27 03:32:33;;;;;;;18.85;14.30;;;;;;;-2.32;96.73;94825.88;5050116;28;20035;-62
2023/02/27 03:34:59;;;;;;;15.95;12.88;;;;;;;-2.35;97.80;94824.28;5053867;28;20475;-55
2023/02/27 03:37:40;;;;;;;17.27;12.60;;;;;;;-2.39;97.63;94830.53;5053043;28;20035;-60
2023/02/27 03:40:05;;;;;;;12.35;11.02;;;;;;;-2.41;98.08;94832.38;5052662;28;20522;-60
2023/02/27 03:42:37;;;;;;;9.50;8.60;;;;;;;-2.36;96.63;94842.44;5050323;28;20108;-59
2023/02/27 03:45:23;;;;;;;9.13;8.25;;;;;;;-2.24;95.42;94841.75;5053770;28;20390;-59
2023/02/27 03:47:48;;;;;;;9.40;8.50;;;;;;;-2.28;94.67;94842.84;5049590;28;20041;-59
2023/02/27 03:50:15;;;;;;;9.10;8.20;;;;;;;-2.28;94.45;94850.56;5049964;28;20074;-60
2023/02/27 03:52:40;;;;;;;11.05;8.52;;;;;;;-2.33;95.40;94853.41;5049685;28;21126;-69
2023/02/27 03:55:32;;;;;;;8.60;7.85;;;;;;;-2.24;94.16;94853.81;5034220;28;20120;-60
2023/02/27 03:57:57;;;;;;;11.93;8.13;;;;;;;-2.04;93.04;94857.88;5053230;28;20032;-64
2023/02/27 04:00:24;;;;;;;8.43;7.72;;;;;;;-2.04;91.81;94860.44;5048859;28;20016;-64
2023/02/27 04:02:52;;;;;;;9.90;8.68;;;;;;;-1.98;91.32;94860.13;5047692;28;20078;-64
2023/02/27 04:05:18;;;;;;;10.80;8.82;;;;;;;-1.95;90.62;94861.69;5051504;28;20022;-64
2023/02/27 04:08:02;;;;;;;10.55;8.63;;;;;;;-2.12;92.13;94866.03;5048513;28;20498;-64
2023/02/27 04:10:49;;;;;;;11.18;10.05;;;;;;;-2.22;93.79;94867.47;5048212;28;20038;-64
2023/02/27 04:13:35;;;;;;;10.90;9.30;;;;;;;-2.29;95.80;94866.97;5050180;28;20111;-63
2023/02/27 04:16:30;;;;;;;10.75;9.65;;;;;;;-2.32;96.44;94870.56;5050809;28;20021;-55
2023/02/27 04:19:34;;;;;;;14.75;12.85;;;;;;;-2.34;96.24;94874.94;5051128;28;20041;-55
2023/02/27 04:22:02;;;;;;;10.65;9.55;;;;;;;-2.34;96.26;94877.50;5057031;28;20157;-55
2023/02/27 04:24:42;;;;;;;10.80;8.57;;;;;;;-2.33;96.67;94889.50;5055921;28;20021;-56
2023/02/27 04:27:27;;;;;;;8.82;7.45;;;;;;;-2.32;95.69;94891.19;5048934;28;20033;-55
2023/02/27 04:30:12;;;;;;;8.38;7.63;;;;;;;-2.29;95.85;94894.50;5051193;28;20033;-55
2023/02/27 04:33:24;;;;;;;8.52;7.72;;;;;;;-2.27;94.42;94897.84;5050358;28;20025;-59
2023/02/27 04:36:09;;;;;;;10.73;9.73;;;;;;;-2.26;94.31;94910.63;5022921;28;20482;-55
2023/02/27 04:38:48;;;;;;;10.50;9.50;;;;;;;-2.31;94.53;94913.47;5053600;28;20074;-52
2023/02/27 04:41:21;;;;;;;10.18;9.30;;;;;;;-2.28;94.44;94909.06;5050704;28;20029;-54
2023/02/27 04:43:48;;;;;;;11.05;10.05;;;;;;;-2.32;96.16;94909.25;5057638;28;20037;-55
2023/02/27 04:46:17;;;;;;;12.10;11.00;;;;;;;-2.33;96.94;94911.88;5052592;28;20016;-52
2023/02/27 04:49:11;;;;;;;12.00;10.85;;;;;;;-2.33;95.96;94917.84;5057826;28;20110;-54
2023/02/27 04:51:47;;;;;;;12.88;11.57;;;;;;;-2.27;95.00;94921.03;5048794;28;20127;-63
2023/02/27 04:54:21;;;;;;;13.18;11.90;;;;;;;-2.24;94.00;94916.53;5056214;28;20453;-62
2023/02/27 04:56:52;;;;;;;13.05;11.75;;;;;;;-2.31;95.86;94918.63;5052697;28;20049;-60
2023/02/27 04:59:28;;;;;;;13.55;10.32;;;;;;;-2.29;94.79;94933.19;5053864;28;20401;-59
2023/02/27 05:02:24;;;;;;;18.90;13.50;;;;;;;-2.28;93.84;94930.50;5055033;28;20064;-60
2023/02/27 05:04:54;;;;;;;26.23;16.70;;;;;;;-2.22;93.45;94930.19;5053036;28;20068;-59
2023/02/27 05:07:25;;;;;;;26.92;16.73;;;;;;;-2.28;94.65;94940.81;5047964;28;20035;-60
2023/02/27 05:10:01;;;;;;;24.92;17.25;;;;;;;-2.27;95.26;94944.25;5049925;28;20025;-63
2023/02/27 05:12:29;;;;;;;32.53;19.50;;;;;;;-2.31;95.73;94947.00;5044995;28;20029;-64
2023/02/27 05:15:05;;;;;;;24.30;17.23;;;;;;;-2.33;96.35;94951.38;5056170;28;20028;-63
2023/02/27 05:17:32;;;;;;;25.77;16.17;;;;;;;-2.32;96.46;94937.59;5033256;28;20402;-66
2023/02/27 05:19:59;;;;;;;21.73;13.73;;;;;;;-2.29;95.79;94951.25;5050233;28;20025;-65
2023/02/27 05:22:54;;;;;;;22.88;14.77;;;;;;;-2.27;95.72;94954.56;5055178;28;20021;-65
2023/02/27 05:25:23;;;;;;;22.35;14.70;;;;;;;-2.27;95.81;94957.97;5045279;28;20038;-66
2023/02/27 05:28:07;;;;;;;18.90;13.57;;;;;;;-2.26;95.59;94966.53;5049846;28;20053;-66
2023/02/27 05:30:43;;;;;;;19.45;12.30;;;;;;;-2.24;94.85;94967.28;5050763;28;20059;-63
2023/02/27 05:33:16;;;;;;;13.25;10.93;;;;;;;-2.20;94.45;94968.78;5054856;28;20041;-64
2023/02/27 05:35:55;;;;;;;14.23;12.35;;;;;;;-2.22;96.23;94970.63;5048185;28;20029;-63
2023/02/27 05:38:29;;;;;;;15.60;11.82;;;;;;;-2.27;95.89;94977.78;5055205;28;20029;-63
2023/02/27 05:41:00;;;;;;;9.85;8.85;;;;;;;-2.30;95.77;94971.03;5055947;28;20020;-64
2023/02/27 05:43:35;;;;;;;8.55;7.75;;;;;;;-2.23;95.74;94982.66;5046219;28;20025;-63
2023/02/27 05:46:10;;;;;;;8.63;7.82;;;;;;;-2.24;95.12;95000.81;5052858;28;20021;-63
2023/02/27 05:48:41;;;;;;;9.35;8.48;;;;;;;-2.25;94.63;95006.91;5054155;28;20021;-63
2023/02/27 05:51:10;;;;;;;12.55;10.80;;;;;;;-2.26;94.22;95000.88;5054391;28;20512;-65
2023/02/27 05:53:42;;;;;;;12.82;10.43;;;;;;;-2.25;94.43;94992.22;5049603;28;20024;-65
2023/02/27 05:56:11;;;;;;;13.38;10.52;;;;;;;-2.27;95.10;95004.38;4995458;28;1141705;-65
2023/02/27 05:58:44;;;;;;;12.73;10.70;;;;;;;-2.31;96.39;95008.03;5052996;28;20120;-65
2023/02/27 06:01:10;;;;;;;37.83;27.55;;;;;;;-2.34;95.25;95011.59;5054943;28;20021;-65
2023/02/27 06:03:38;;;;;;;30.23;20.13;;;;;;;-2.39;95.20;95016.16;5052138;28;20108;-65
2023/02/27 06:06:05;;;;;;;31.45;21.45;;;;;;;-2.39;95.42;95017.94;5050214;28;20501;-65
2023/02/27 06:08:31;;;;;;;25.85;16.45;;;;;;;-2.41;96.40;95022.34;5053355;28;20455;-59
2023/02/27 06:10:56;;;;;;;20.88;15.50;;;;;;;-2.42;96.72;95024.06;5054195;28;20076;-64
2023/02/27 06:13:23;;;;;;;22.90;15.55;;;;;;;-2.39;95.95;95026.47;5054862;28;20036;-62
2023/02/27 06:15:48;;;;;;;19.63;14.82;;;;;;;-2.45;95.53;95032.78;5051861;28;20063;-62
2023/02/27 06:18:15;;;;;;;19.48;14.93;;;;;;;-2.47;96.86;95042.34;5053341;28;20100;-63
2023/02/27 06:20:42;;;;;;;17.80;14.32;;;;;;;-2.53;97.95;95039.28;5056310;28;20029;-62
2023/02/27 06:23:08;;;;;;;13.13;11.38;;;;;;;-2.57;98.47;95043.75;5055315;28;20051;-63
2023/02/27 06:25:33;;;;;;;14.25;11.65;;;;;;;-2.54;98.45;95045.31;5050103;28;20045;-64
2023/02/27 06:27:59;;;;;;;14.38;11.70;;;;;;;-2.54;97.60;95050.47;5052530;28;20488;-57
2023/02/27 06:30:25;;;;;;;15.95;12.40;;;;;;;-2.52;97.72;95052.06;5047372;28;20542;-60
2023/02/27 06:32:50;;;;;;;16.50;13.13;;;;;;;-2.53;96.71;95054.72;5050002;28;20021;-62
2023/02/27 06:35:16;;;;;;;11.60;10.57;;;;;;;-2.51;97.26;95058.88;5052109;28;20082;-62
2023/02/27 06:37:42;;;;;;;13.75;11.55;;;;;;;-2.52;96.33;95077.03;5035531;28;20082;-62
2023/02/27 06:40:10;;;;;;;13.20;11.82;;;;;;;-2.52;96.19;95072.69;5047258;28;20115;-63
2023/02/27 06:42:36;;;;;;;13.13;11.90;;;;;;;-2.49;95.30;95076.88;5045962;28;20053;-65
2023/02/27 06:45:02;;;;;;;14.98;13.48;;;;;;;-2.47;95.77;95085.34;5039721;28;20028;-64
2023/02/27 06:47:27;;;;;;;12.88;11.57;;;;;;;-2.50;95.84;95101.78;5043393;28;20033;-62
2023/02/27 06:49:53;;;;;;;13.30;11.93;;;;;;;-2.46;95.92;95099.91;5027844;28;20048;-63
2023/02/27 06:52:18;;;;;;;13.20;12.00;;;;;;;-2.43;96.38;95112.63;5044007;28;20044;-63
2023/02/27 06:54:43;;;;;;;13.35;12.05;;;;;;;-2.40;96.61;95109.09;5041418;28;20033;-64
2023/02/27 06:57:09;;;;;;;17.77;15.98;;;;;;;-2.39;97.00;95109.00;5039943;28;20048;-64
2023/02/27 06:59:34;;;;;;;22.85;20.45;;;;;;;-2.40;95.76;95122.78;5045593;28;20380;-64
2023/02/27 07:02:00;;;;;;;20.38;18.17;;;;;;;-2.37;95.34;95126.97;5036313;28;20021;-65
2023/02/27 07:04:25;;;;;;;35.33;26.08;;;;;;;-2.34;94.81;95134.56;5037160;28;20021;-63
2023/02/27 07:06:51;;;;;;;28.15;21.85;;;;;;;-2.35;94.65;95146.59;5045602;28;20029;-62
2023/02/27 07:09:17;;;;;;;20.50;16.98;;;;;;;-2.33;96.63;95142.19;5049383;28;20040;-60
2023/02/27 07:11:42;;;;;;;18.92;17.05;;;;;;;-2.28;96.63;95136.81;5043891;28;20439;-62
2023/02/27 07:14:07;;;;;;;14.57;12.43;;;;;;;-2.20;96.13;95137.28;5038318;28;20040;-61
2023/02/27 07:16:33;;;;;;;12.73;11.43;;;;;;;-2.15;95.79;95152.50;5036637;28;20021;-60
2023/02/27 07:18:58;;;;;;;13.25;11.85;;;;;;;-2.13;95.24;95150.69;5046103;28;20120;-61
2023/02/27 07:21:24;;;;;;;13.02;11.63;;;;;;;-2.09;94.99;95152.22;5042732;28;20025;-60
2023/02/27 07:23:49;;;;;;;13.18;10.27;;;;;;;-2.07;94.98;95154.69;5040913;28;20021;-60
2023/02/27 07:26:14;;;;;;;13.38;11.20;;;;;;;-2.03;94.77;95158.78;5046479;28;20025;-61
2023/02/27 07:28:40;;;;;;;14.32;12.93;;;;;;;-2.02;93.46;95163.88;5043071;28;20397;-61
2023/02/27 07:31:05;;;;;;;18.30;16.40;;;;;;;-1.94;93.07;95176.38;5048849;28;20376;-61
2023/02/27 07:33:32;;;;;;;18.15;16.10;;;;;;;-1.82;92.33;95176.66;5043454;28;20123;-61
2023/02/27 07:35:58;;;;;;;19.17;16.60;;;;;;;-1.75;91.89;95178.84;5043800;28;20021;-61
2023/02/27 07:38:24;;;;;;;19.90;14.18;;;;;;;-1.61;91.03;95174.72;5040253;28;20086;-60
2023/02/27 07:40:49;;;;;;;14.18;12.77;;;;;;;-1.58;90.79;95184.88;5045932;28;20024;-61
2023/02/27 07:43:14;;;;;;;14.38;12.98;;;;;;;-1.52;88.98;95183.75;5028829;28;20044;-61
2023/02/27 07:45:40;;;;;;;15.18;12.38;;;;;;;-1.49;87.71;95191.31;5037686;28;20029;-61
2023/02/27 07:48:06;;;;;;;16.92;14.75;;;;;;;-1.50;87.82;95193.06;5038897;28;20036;-74
2023/02/27 07:50:31;;;;;;;46.25;32.78;;;;;;;-1.53;86.69;95192.41;5036649;28;20033;-60
2023/02/27 07:52:56;;;;;;;41.50;33.38;;;;;;;-1.50;87.39;95200.81;5043032;28;20035;-60
2023/02/27 07:55:22;;;;;;;123.55;76.97;;;;;;;-1.47;86.79;95204.97;5043126;28;20029;-60
2023/02/27 07:57:47;;;;;;;56.17;37.35;;;;;;;-1.41;86.59;95209.00;5039850;28;20071;-61
2023/02/27 08:00:13;;;;;;;28.92;23.40;;;;;;;-1.35;85.09;95208.66;5039878;28;20498;-60
2023/02/27 08:02:38;;;;;;;19.40;16.08;;;;;;;-1.32;83.96;95213.66;5044594;28;20073;-60
2023/02/27 08:05:05;;;;;;;15.00;13.45;;;;;;;-1.26;83.03;95221.09;5041386;28;20021;-73
2023/02/27 08:07:30;;;;;;;12.50;11.20;;;;;;;-1.27;82.72;95222.00;5043009;28;20171;-61
2023/02/27 08:09:55;;;;;;;10.35;9.45;;;;;;;-1.18;83.07;95231.88;5042133;28;20576;-61
2023/02/27 08:12:21;;;;;;;20.50;14.45;;;;;;;-0.96;81.71;95224.69;5042491;28;20029;-61
2023/02/27 08:14:47;;;;;;;18.27;15.07;;;;;;;-0.95;81.57;95226.34;5041721;28;20520;-60
2023/02/27 08:17:12;;;;;;;18.35;16.38;;;;;;;-0.61;80.87;95232.28;5044578;28;20033;-60
2023/02/27 08:19:38;;;;;;;19.27;16.52;;;;;;;-0.24;81.06;95235.38;5042682;28;20517;-60
2023/02/27 08:22:03;;;;;;;11.93;10.75;;;;;;;0.17;78.20;95239.13;5044155;28;20482;-60
2023/02/27 08:24:29;;;;;;;18.35;16.45;;;;;;;0.34;77.01;95248.47;5041097;28;20026;-67
2023/02/27 08:26:54;;;;;;;15.02;13.30;;;;;;;0.49;76.13;95249.31;5038664;28;20116;-63
2023/02/27 08:29:19;;;;;;;15.77;14.27;;;;;;;0.65;75.78;95262.19;5037401;28;20060;-64
2023/02/27 08:31:45;;;;;;;11.27;10.25;;;;;;;0.66;73.50;95257.84;5023129;28;20413;-64
2023/02/27 08:34:11;;;;;;;24.10;18.65;;;;;;;0.52;74.24;95267.25;5044337;28;20025;-64
2023/02/27 08:36:37;;;;;;;16.85;14.52;;;;;;;0.49;73.72;95262.28;5044512;28;20408;-64
2023/02/27 08:39:03;;;;;;;12.55;11.35;;;;;;;0.26;73.46;95272.22;5039332;28;20025;-64
2023/02/27 08:41:28;;;;;;;10.48;9.48;;;;;;;0.03;73.82;95277.91;5046770;28;20021;-64
2023/02/27 08:43:53;;;;;;;11.27;10.15;;;;;;;0.05;74.45;95271.72;5040497;28;20025;-60
2023/02/27 08:46:19;;;;;;;10.93;9.82;;;;;;;0.30;74.46;95274.63;5037839;28;21263;-60
2023/02/27 08:48:44;;;;;;;10.32;9.27;;;;;;;0.61;72.76;95278.03;5036117;28;20662;-60
2023/02/27 08:51:09;;;;;;;14.43;12.52;;;;;;;0.64;72.60;95270.88;5039768;28;20040;-60
2023/02/27 08:53:35;;;;;;;29.25;19.40;;;;;;;0.76;72.16;95274.50;5038715;28;20025;-60
2023/02/27 08:56:00;;;;;;;10.00;9.00;;;;;;;0.75;72.27;95283.19;5040541;28;20083;-59
2023/02/27 08:58:27;;;;;;;11.45;10.25;;;;;;;0.70;71.15;95280.06;5040738;28;20040;-60
2023/02/27 09:00:52;;;;;;;34.17;19.60;;;;;;;0.73;71.32;95284.22;5043269;28;20039;-60
2023/02/27 09:03:18;;;;;;;17.95;13.07;;;;;;;0.78;71.96;95282.19;5037904;28;20025;-60
2023/02/27 09:05:43;;;;;;;18.83;11.50;;;;;;;0.73;69.87;95284.22;5042054;28;20056;-60
2023/02/27 09:08:08;;;;;;;21.90;14.07;;;;;;;0.69;70.03;95284.41;5042672;28;20457;-60
2023/02/27 09:10:34;;;;;;;10.80;9.80;;;;;;;0.82;70.72;95297.47;5024596;28;20745;-60
2023/02/27 09:13:00;;;;;;;11.02;6.82;;;;;;;1.16;71.26;95291.16;5038461;28;20022;-59
2023/02/27 09:15:25;;;;;;;16.95;10.45;;;;;;;1.43;69.64;95292.03;5040921;28;20130;-60
2023/02/27 09:17:53;;;;;;;12.50;11.30;;;;;;;1.43;68.34;95289.44;5047983;28;20118;-60
2023/02/27 09:20:19;;;;;;;8.95;8.18;;;;;;;1.13;69.62;95295.59;5043000;28;20028;-60
2023/02/27 09:22:44;;;;;;;8.82;7.95;;;;;;;1.38;68.11;95307.06;5048402;28;20026;-70
2023/02/27 09:25:09;;;;;;;11.93;10.73;;;;;;;1.81;68.04;95302.69;5043551;28;20122;-60
2023/02/27 09:27:35;;;;;;;9.63;8.88;;;;;;;2.29;65.76;95297.03;5038401;28;20104;-59
2023/02/27 09:30:00;;;;;;;10.65;8.70;;;;;;;2.67;65.90;95309.25;5044352;28;20502;-60
2023/02/27 09:32:26;;;;;;;19.85;16.73;;;;;;;2.98;65.90;95312.38;5043568;28;20394;-60
2023/02/27 09:34:52;;;;;;;6.45;5.95;;;;;;;3.21;62.44;95309.16;5040924;28;20025;-60
2023/02/27 09:37:18;;;;;;;7.75;7.05;;;;;;;3.06;64.00;95305.81;5038890;28;20071;-60
2023/02/27 09:39:44;;;;;;;9.50;7.65;;;;;;;3.04;62.24;95312.88;5032740;28;20026;-68
2023/02/27 09:42:18;;;;;;;6.40;5.93;;;;;;;3.02;61.97;95313.00;5040759;28;20061;-55
2023/02/27 09:44:59;;;;;;;6.70;6.10;;;;;;;3.09;60.88;95322.06;5041537;28;20020;-60
2023/02/27 09:47:40;;;;;;;6.75;6.25;;;;;;;3.24;61.24;95330.56;5047331;28;20017;-61
2023/02/27 09:50:20;;;;;;;6.45;5.82;;;;;;;2.65;59.86;95334.53;5046314;28;20581;-61
2023/02/27 09:52:46;;;;;;;8.77;7.88;;;;;;;2.79;63.37;95340.56;5042128;28;20033;-61
2023/02/27 09:55:18;;;;;;;12.02;9.10;;;;;;;3.59;62.59;95339.47;5041491;28;20565;-60
2023/02/27 09:58:03;;;;;;;6.30;5.80;;;;;;;4.38;56.89;95343.47;5037006;28;20108;-61
2023/02/27 10:00:54;;;;;;;9.50;7.95;;;;;;;5.06;55.72;95350.63;5043225;28;20463;-55
2023/02/27 10:03:19;;;;;;;5.80;5.40;;;;;;;5.47;55.43;95344.00;5048056;28;20017;-64
2023/02/27 10:06:03;;;;;;;11.32;8.18;;;;;;;5.61;53.39;95348.16;5045199;28;20024;-63
2023/02/27 10:08:44;;;;;;;44.72;23.95;;;;;;;5.32;53.01;95353.06;5038847;28;20047;-64
2023/02/27 10:11:21;;;;;;;14.43;10.27;;;;;;;5.07;54.45;95360.97;5044074;28;20079;-64
2023/02/27 10:14:03;;;;;;;19.60;12.27;;;;;;;5.24;55.05;95351.03;5043744;28;20068;-64
2023/02/27 10:16:31;;;;;;;11.30;8.05;;;;;;;5.07;51.90;95350.53;5042895;28;20028;-64
2023/02/27 10:19:04;;;;;;;8.63;7.15;;;;;;;4.61;52.85;95361.78;5049709;28;20363;-61
2023/02/27 10:21:48;;;;;;;18.27;11.18;;;;;;;4.69;54.44;95373.31;5042319;28;20087;-57
2023/02/27 10:24:26;;;;;;;5.60;5.10;;;;;;;4.63;53.10;95375.53;5043427;28;20020;-61
2023/02/27 10:26:53;;;;;;;11.55;7.35;;;;;;;4.69;54.65;95377.69;5043481;28;20033;-62
2023/02/27 10:29:32;;;;;;;6.20;5.63;;;;;;;5.10;54.38;95381.59;5046957;28;20029;-62
2023/02/27 10:32:05;;;;;;;7.43;6.75;;;;;;;5.90;52.52;95371.19;5043193;28;20024;-63
2023/02/27 10:34:33;;;;;;;5.20;4.80;;;;;;;6.22;50.88;95386.13;5039325;28;20029;-62
2023/02/27 10:37:02;;;;;;;5.47;5.07;;;;;;;6.68;49.66;95383.34;5043709;28;20025;-63
2023/02/27 10:39:31;;;;;;;5.40;4.90;;;;;;;7.02;49.59;95381.41;5046717;28;20021;-72
2023/02/27 10:42:05;;;;;;;7.40;6.80;;;;;;;7.17;46.24;95381.91;5032894;28;20402;-61
2023/02/27 10:44:32;;;;;;;7.47;5.78;;;;;;;6.81;47.30;95381.41;5043589;28;20497;-60
2023/02/27 10:46:57;;;;;;;6.63;6.03;;;;;;;7.29;47.64;95374.81;5046568;28;20037;-61
2023/02/27 10:49:23;;;;;;;5.57;5.13;;;;;;;7.40;47.27;95381.75;5042690;28;20496;-60
2023/02/27 10:52:07;;;;;;;6.55;5.90;;;;;;;7.35;46.64;95386.56;5044965;28;20032;-60
2023/02/27 10:54:32;;;;;;;7.18;6.47;;;;;;;7.19;45.44;95389.63;5049216;28;20025;-60
2023/02/27 10:57:05;;;;;;;6.40;5.85;;;;;;;7.18;45.30;95393.22;5045147;28;20441;-70
2023/02/27 10:59:40;;;;;;;7.50;6.90;;;;;;;7.13;45.76;95384.91;5041657;28;20060;-68
2023/02/27 11:02:15;;;;;;;;;;;;;;;7.50;45.42;95383.59;5044722;28;20528;-67
2023/02/27 11:04:47;;;;;;;5.38;4.88;;;;;;;7.09;44.74;95391.38;5040626;28;20015;-69
2023/02/27 11:07:15;;;;;;;7.57;6.13;;;;;;;7.60;46.89;95392.31;5045282;28;20025;-70
2023/02/27 11:09:41;;;;;;;6.80;5.47;;;;;;;8.17;43.48;95390.03;5038732;28;20028;-69
2023/02/27 11:12:21;;;;;;;12.25;10.48;;;;;;;8.42;43.92;95389.69;5043179;28;20450;-69
2023/02/27 11:14:55;;;;;;;5.28;4.88;;;;;;;7.80;42.12;95387.16;5044199;28;20025;-69
2023/02/27 11:17:27;;;;;;;5.72;5.22;;;;;;;7.71;42.37;95394.03;5021837;28;20020;-60
2023/02/27 11:19:54;;;;;;;6.15;5.68;;;;;;;8.48;43.75;95390.94;5036684;28;20035;-62
2023/02/27 11:22:23;;;;;;;5.40;5.00;;;;;;;8.99;42.55;95383.81;5037919;28;20052;-60
2023/02/27 11:24:49;;;;;;;5.32;4.82;;;;;;;8.68;41.54;95381.31;5038097;28;20383;-60
2023/02/27 11:27:27;;;;;;;6.53;5.55;;;;;;;8.44;41.74;95391.22;5041286;28;20091;-60
2023/02/27 11:30:06;;;;;;;5.65;5.15;;;;;;;8.32;43.37;95390.50;5045654;28;20040;-60
2023/02/27 11:32:41;;;;;;;5.40;4.80;;;;;;;8.53;41.37;95394.84;5038940;28;20118;-61
2023/02/27 11:35:24;;;;;;;5.85;5.43;;;;;;;9.02;41.98;95388.78;5044878;28;20037;-60
2023/02/27 11:37:51;;;;;;;5.10;4.65;;;;;;;9.70;40.97;95387.78;5036974;28;20501;-62
2023/02/27 11:40:19;;;;;;;5.22;4.82;;;;;;;10.28;39.80;95380.59;5022104;28;20076;-63
2023/02/27 11:42:55;;;;;;;6.50;5.25;;;;;;;10.47;38.06;95384.09;5040742;28;20112;-62